createdAt,value
2018-01-11T00:01:06.961Z,8.90
2018-01-11T00:03:35.361Z,9.00
2018-01-11T00:06:03.671Z,9.00
2018-01-11T00:08:31.999Z,9.00
2018-01-11T00:11:00.329Z,9.00
2018-01-11T00:13:29.389Z,9.00
2018-01-11T00:15:58.487Z,9.00
2018-01-11T00:18:27.827Z,9.10
2018-01-11T00:20:56.140Z,9.00
2018-01-11T00:23:24.488Z,9.00
2018-01-11T00:25:52.819Z,9.00
2018-01-11T00:28:21.129Z,9.00
2018-01-11T00:30:50.195Z,9.00
2018-01-11T00:33:18.529Z,9.00
2018-01-11T00:35:46.877Z,9.00
2018-01-11T00:38:15.190Z,9.00
2018-01-11T00:40:43.521Z,9.00
2018-01-11T00:43:12.563Z,9.00
2018-01-11T00:45:41.637Z,9.00
2018-01-11T00:48:09.959Z,9.00
2018-01-11T00:50:38.295Z,9.00
2018-01-11T00:53:06.660Z,9.00
2018-01-11T00:55:35.015Z,8.90
2018-01-11T00:58:03.325Z,9.00
2018-01-11T01:00:31.665Z,8.90
2018-01-11T01:03:00.004Z,8.90
2018-01-11T01:05:28.316Z,8.90
2018-01-11T01:07:57.401Z,8.80
2018-01-11T01:10:25.727Z,8.80
2018-01-11T01:12:54.874Z,8.80
2018-01-11T01:15:23.199Z,8.70
2018-01-11T01:17:51.575Z,8.70
2018-01-11T01:20:19.888Z,8.60
2018-01-11T01:22:48.207Z,8.60
2018-01-11T01:25:16.556Z,8.60
2018-01-11T01:27:44.885Z,8.60
2018-01-11T01:30:13.949Z,8.60
2018-01-11T01:32:42.285Z,8.60
2018-01-11T01:35:10.624Z,8.60
2018-01-11T01:37:38.943Z,8.60
2018-01-11T01:40:07.329Z,8.60
2018-01-11T01:42:35.662Z,8.60
2018-01-11T01:45:03.969Z,8.60
2018-01-11T01:47:32.510Z,8.70
2018-01-11T01:50:00.829Z,8.70
2018-01-11T01:52:29.140Z,8.70
2018-01-11T01:54:57.449Z,8.70
2018-01-11T01:57:25.792Z,8.70
2018-01-11T01:59:54.876Z,8.80
2018-01-11T02:02:23.962Z,8.80
2018-01-11T02:04:52.272Z,8.80
2018-01-11T02:07:21.345Z,8.80
2018-01-11T02:09:49.666Z,8.80
2018-01-11T02:12:18.002Z,8.90
2018-01-11T02:14:46.325Z,8.90
2018-01-11T02:17:14.694Z,8.90
2018-01-11T02:19:43.772Z,8.90
2018-01-11T02:22:12.099Z,8.90
2018-01-11T02:24:40.432Z,8.90
2018-01-11T02:27:08.760Z,8.80
2018-01-11T02:29:37.873Z,8.80
2018-01-11T02:32:06.212Z,8.90
2018-01-11T02:34:34.548Z,8.80
2018-01-11T02:37:02.858Z,8.80
2018-01-11T02:39:31.169Z,8.80
2018-01-11T02:42:00.232Z,8.80
2018-01-11T02:44:28.550Z,8.90
2018-01-11T02:46:57.616Z,8.90
2018-01-11T02:49:25.938Z,8.90
2018-01-11T02:51:55.024Z,8.90
2018-01-11T02:54:24.102Z,8.90
2018-01-11T02:56:52.422Z,8.90
2018-01-11T02:59:20.744Z,8.90
2018-01-11T03:01:49.054Z,8.90
2018-01-11T03:04:17.386Z,9.00
2018-01-11T03:06:45.731Z,9.00
2018-01-11T03:09:14.060Z,9.00
2018-01-11T03:11:42.448Z,9.00
2018-01-11T03:14:10.794Z,9.00
2018-01-11T03:16:39.899Z,9.00
2018-01-11T03:19:08.244Z,9.00
2018-01-11T03:21:36.564Z,9.00
2018-01-11T03:24:04.880Z,9.00
2018-01-11T03:26:33.214Z,9.00
2018-01-11T03:29:02.333Z,9.00
2018-01-11T03:31:30.641Z,9.00
2018-01-11T03:33:58.956Z,9.00
2018-01-11T03:36:27.284Z,9.00
2018-01-11T03:38:55.600Z,9.00
2018-01-11T03:41:23.908Z,9.00
2018-01-11T03:43:52.238Z,9.00
2018-01-11T03:46:20.604Z,9.00
2018-01-11T03:48:48.924Z,9.00
2018-01-11T03:51:17.280Z,9.00
2018-01-11T03:53:45.575Z,9.00
2018-01-11T03:56:13.975Z,9.00
2018-01-11T03:58:42.284Z,9.00
2018-01-11T04:01:10.678Z,9.00
2018-01-11T04:03:39.754Z,9.00
2018-01-11T04:06:08.072Z,9.00
2018-01-11T04:08:37.148Z,9.00
2018-01-11T04:11:05.478Z,9.00
2018-01-11T04:13:33.774Z,9.00
2018-01-11T04:16:02.087Z,9.00
2018-01-11T04:18:30.404Z,9.00
2018-01-11T04:20:58.710Z,9.00
2018-01-11T04:23:27.024Z,9.10
2018-01-11T04:25:55.330Z,9.10
2018-01-11T04:28:24.412Z,9.10
2018-01-11T04:30:52.716Z,9.10
2018-01-11T04:33:21.808Z,9.10
2018-01-11T04:35:50.918Z,9.10
2018-01-11T04:38:20.038Z,9.10
2018-01-11T04:40:48.378Z,9.10
2018-01-11T04:43:16.704Z,9.10
2018-01-11T04:45:45.027Z,9.10
2018-01-11T04:48:13.352Z,9.10
2018-01-11T04:50:41.692Z,9.10
2018-01-11T04:53:10.049Z,9.00
2018-01-11T04:55:38.384Z,9.00
2018-01-11T04:58:07.505Z,9.00
2018-01-11T05:00:41.464Z,9.00
2018-01-11T05:03:09.786Z,9.00
2018-01-11T05:05:38.864Z,9.10
2018-01-11T05:08:07.180Z,9.00
2018-01-11T05:10:35.566Z,9.10
2018-01-11T05:13:03.916Z,9.10
2018-01-11T05:15:32.237Z,9.10
2018-01-11T05:18:00.563Z,9.10
2018-01-11T05:20:28.934Z,9.10
2018-01-11T05:22:57.300Z,9.20
2018-01-11T05:25:25.631Z,9.20
2018-01-11T05:27:53.976Z,9.20
2018-01-11T05:30:22.302Z,9.20
2018-01-11T05:32:51.396Z,9.20
2018-01-11T05:35:20.484Z,9.10
2018-01-11T05:37:48.812Z,9.10
2018-01-11T05:40:17.126Z,9.10
2018-01-11T05:42:45.592Z,9.10
2018-01-11T05:45:13.940Z,9.10
2018-01-11T05:47:43.018Z,9.00
2018-01-11T05:50:12.122Z,9.00
2018-01-11T05:52:41.192Z,9.00
2018-01-11T05:55:09.531Z,9.00
2018-01-11T05:57:37.858Z,9.00
2018-01-11T06:00:06.944Z,9.00
2018-01-11T06:02:35.272Z,9.00
2018-01-11T06:05:04.348Z,9.00
2018-01-11T06:07:32.700Z,9.00
2018-01-11T06:10:01.038Z,9.00
2018-01-11T06:12:30.126Z,9.00
2018-01-11T06:14:58.444Z,9.00
2018-01-11T06:17:26.746Z,9.00
2018-01-11T06:19:55.070Z,9.00
2018-01-11T06:22:24.147Z,9.00
2018-01-11T06:24:53.178Z,9.00
2018-01-11T06:27:22.272Z,9.00
2018-01-11T06:29:51.365Z,8.90
2018-01-11T06:32:19.678Z,8.90
2018-01-11T06:34:48.036Z,9.00
2018-01-11T06:37:17.158Z,9.00
2018-01-11T06:39:45.494Z,8.90
2018-01-11T06:42:13.983Z,8.90
2018-01-11T06:44:42.404Z,9.00
2018-01-11T06:47:11.546Z,8.90
2018-01-11T06:49:39.852Z,8.90
2018-01-11T06:52:08.191Z,8.90
2018-01-11T06:54:36.513Z,8.90
2018-01-11T06:57:04.839Z,8.80
2018-01-11T06:59:33.178Z,8.80
2018-01-11T07:02:01.554Z,8.80
2018-01-11T07:04:30.002Z,8.80
2018-01-11T07:06:58.530Z,8.80
2018-01-11T07:09:26.860Z,8.80
2018-01-11T07:11:55.154Z,8.70
2018-01-11T07:14:23.472Z,8.70
2018-01-11T07:16:51.806Z,8.80
2018-01-11T07:19:20.104Z,8.70
2018-01-11T07:21:48.424Z,8.70
2018-01-11T07:24:16.790Z,8.70
2018-01-11T07:26:45.208Z,8.70
2018-01-11T07:29:13.506Z,8.70
2018-01-11T07:31:42.575Z,8.70
2018-01-11T07:34:10.908Z,8.70
2018-01-11T07:36:39.222Z,8.70
2018-01-11T07:39:07.540Z,8.70
2018-01-11T07:41:36.628Z,8.70
2018-01-11T07:44:05.707Z,8.70
2018-01-11T07:46:34.033Z,8.70
2018-01-11T07:49:02.359Z,8.70
2018-01-11T07:51:30.695Z,8.70
2018-01-11T07:53:59.823Z,8.60
2018-01-11T07:56:28.149Z,8.60
2018-01-11T07:58:56.472Z,8.60
2018-01-11T08:01:24.819Z,8.60
2018-01-11T08:03:53.899Z,8.60
2018-01-11T08:06:22.261Z,8.60
2018-01-11T08:08:50.583Z,8.70
2018-01-11T08:11:18.920Z,8.60
2018-01-11T08:13:47.225Z,8.60
2018-01-11T08:16:15.535Z,8.60
2018-01-11T08:18:44.771Z,8.70
2018-01-11T08:21:13.125Z,8.70
2018-01-11T08:23:42.187Z,8.80
2018-01-11T08:26:10.517Z,8.80
2018-01-11T08:28:38.843Z,8.80
2018-01-11T08:31:07.187Z,8.90
2018-01-11T08:33:35.497Z,8.90
2018-01-11T08:36:03.817Z,8.90
2018-01-11T08:38:32.151Z,9.00
2018-01-11T08:41:00.461Z,9.00
2018-01-11T08:43:28.777Z,9.00
2018-01-11T08:45:57.867Z,9.00
2018-01-11T08:48:26.185Z,9.00
2018-01-11T08:50:54.501Z,9.00
2018-01-11T08:53:22.815Z,9.00
2018-01-11T08:55:51.999Z,9.10
2018-01-11T08:58:20.325Z,9.10
2018-01-11T09:00:48.647Z,9.10
2018-01-11T09:03:16.973Z,9.10
2018-01-11T09:05:46.780Z,9.10
2018-01-11T09:08:15.294Z,9.10
2018-01-11T09:10:43.635Z,9.10
2018-01-11T09:13:11.969Z,9.20
2018-01-11T09:15:40.266Z,9.10
2018-01-11T09:18:08.603Z,9.10
2018-01-11T09:20:38.261Z,9.20
2018-01-11T09:23:07.029Z,9.20
2018-01-11T09:25:35.384Z,9.20
2018-01-11T09:28:04.451Z,9.30
2018-01-11T09:30:32.772Z,9.20
2018-01-11T09:33:01.844Z,9.30
2018-01-11T09:35:30.197Z,9.30
2018-01-11T09:37:58.509Z,9.30
2018-01-11T09:40:26.831Z,9.30
2018-01-11T09:42:55.171Z,9.30
2018-01-11T09:45:23.529Z,9.30
2018-01-11T09:47:51.842Z,9.40
2018-01-11T09:50:20.156Z,9.40
2018-01-11T09:52:48.477Z,9.50
2018-01-11T09:55:16.799Z,9.50
2018-01-11T09:57:45.870Z,9.50
2018-01-11T10:00:14.187Z,9.50
2018-01-11T10:02:43.282Z,9.50
2018-01-11T10:05:13.087Z,9.50
2018-01-11T10:07:41.412Z,9.50
2018-01-11T10:10:09.744Z,9.50
2018-01-11T10:12:38.072Z,9.50
2018-01-11T10:15:06.431Z,9.50
2018-01-11T10:17:34.760Z,9.50
2018-01-11T10:20:03.081Z,9.50
2018-01-11T10:22:31.409Z,9.50
2018-01-11T10:24:59.734Z,9.50
2018-01-11T10:27:28.051Z,9.50
2018-01-11T10:29:56.373Z,9.50
2018-01-11T10:32:24.722Z,9.50
2018-01-11T10:34:53.081Z,9.50
2018-01-11T10:37:22.233Z,9.50
2018-01-11T10:39:50.559Z,9.50
2018-01-11T10:42:19.659Z,9.50
2018-01-11T10:44:48.777Z,9.60
2018-01-11T10:47:17.901Z,9.60
2018-01-11T10:49:46.196Z,9.60
2018-01-11T10:52:14.565Z,9.60
2018-01-11T10:54:42.892Z,9.70
2018-01-11T10:57:11.255Z,9.70
2018-01-11T10:59:39.576Z,9.70
2018-01-11T11:02:14.289Z,9.60
2018-01-11T11:04:43.195Z,9.60
2018-01-11T11:07:13.082Z,9.60
2018-01-11T11:09:41.512Z,9.60
2018-01-11T11:12:09.863Z,9.60
2018-01-11T11:14:38.197Z,9.60
2018-01-11T11:17:06.511Z,9.60
2018-01-11T11:19:34.845Z,9.50
2018-01-11T11:22:03.178Z,9.50
2018-01-11T11:24:31.630Z,9.50
2018-01-11T11:27:00.788Z,9.60
2018-01-11T11:29:30.048Z,9.60
2018-01-11T11:31:59.236Z,9.50
2018-01-11T11:34:27.569Z,9.60
2018-01-11T11:36:55.893Z,9.60
2018-01-11T11:39:24.206Z,9.60
2018-01-11T11:41:52.554Z,9.60
2018-01-11T11:46:54.834Z,9.70
2018-01-11T11:49:23.146Z,9.80
2018-01-11T11:51:51.467Z,9.80
2018-01-11T11:56:54.310Z,9.70
2018-01-11T11:59:22.646Z,9.70
2018-01-11T12:01:51.567Z,9.70
2018-01-11T12:04:20.647Z,9.70
2018-01-11T12:06:48.969Z,9.70
2018-01-11T12:09:17.304Z,9.70
2018-01-11T12:11:45.632Z,9.70
2018-01-11T12:14:13.945Z,9.70
2018-01-11T12:16:42.247Z,9.70
2018-01-11T12:19:10.592Z,9.70
2018-01-11T12:21:38.919Z,9.80
2018-01-11T12:24:07.237Z,9.80
2018-01-11T12:26:35.545Z,9.80
2018-01-11T12:29:03.856Z,9.80
2018-01-11T12:31:32.190Z,9.80
2018-01-11T12:34:00.522Z,9.90
2018-01-11T12:36:28.850Z,9.90
2018-01-11T12:38:57.238Z,9.90
2018-01-11T12:41:25.564Z,9.90
2018-01-11T12:43:53.901Z,9.90
2018-01-11T12:46:22.228Z,9.80
2018-01-11T12:48:50.557Z,9.80
2018-01-11T12:51:18.872Z,9.80
2018-01-11T12:53:47.967Z,9.80
2018-01-11T12:56:16.282Z,9.80
2018-01-11T12:58:44.661Z,9.80
2018-01-11T13:01:13.056Z,9.80
2018-01-11T13:03:41.394Z,9.80
2018-01-11T13:06:09.701Z,9.80
2018-01-11T13:08:38.019Z,9.80
2018-01-11T13:11:07.092Z,9.90
2018-01-11T13:13:35.420Z,9.80
2018-01-11T13:16:03.752Z,9.90
2018-01-11T13:18:32.086Z,9.90
2018-01-11T13:21:00.398Z,9.90
2018-01-11T13:23:28.712Z,9.90
2018-01-11T13:25:57.046Z,9.90
2018-01-11T13:28:25.384Z,9.90
2018-01-11T13:30:54.496Z,9.80
2018-01-11T13:33:22.822Z,9.80
2018-01-11T13:35:51.152Z,9.80
2018-01-11T13:38:20.264Z,9.80
2018-01-11T13:40:48.570Z,9.80
2018-01-11T13:43:16.946Z,9.80
2018-01-11T13:45:45.322Z,9.70
2018-01-11T13:48:13.628Z,9.70
2018-01-11T13:50:41.956Z,9.70
2018-01-11T13:53:10.373Z,9.70
2018-01-11T13:55:38.649Z,9.70
2018-01-11T13:58:06.985Z,9.70
2018-01-11T14:00:35.321Z,9.70
2018-01-11T14:03:04.440Z,9.70
2018-01-11T14:05:32.746Z,9.60
2018-01-11T14:08:01.086Z,9.60
2018-01-11T14:10:29.424Z,9.70
2018-01-11T14:12:57.762Z,9.70
2018-01-11T14:15:26.085Z,9.70
2018-01-11T14:17:54.423Z,9.60
2018-01-11T14:20:22.777Z,9.60
2018-01-11T14:22:51.160Z,9.60
2018-01-11T14:25:19.491Z,9.70
2018-01-11T14:27:47.826Z,9.70
2018-01-11T14:30:16.171Z,9.70
2018-01-11T14:32:44.477Z,9.70
2018-01-11T14:35:13.570Z,9.80
2018-01-11T14:37:42.690Z,9.80
2018-01-11T14:40:11.026Z,9.80
2018-01-11T14:42:39.352Z,9.80
2018-01-11T14:45:07.710Z,9.80
2018-01-11T14:47:36.061Z,9.80
2018-01-11T14:50:04.413Z,9.80
2018-01-11T14:52:32.712Z,9.80
2018-01-11T14:55:01.029Z,9.70
2018-01-11T14:57:29.368Z,9.70
2018-01-11T14:59:57.693Z,9.70
2018-01-11T15:02:26.066Z,9.70
2018-01-11T15:04:54.418Z,9.70
2018-01-11T15:07:22.756Z,9.70
2018-01-11T15:09:51.105Z,9.70
2018-01-11T15:12:19.416Z,9.70
2018-01-11T15:14:47.752Z,9.70
2018-01-11T15:17:16.162Z,9.70
2018-01-11T15:19:44.504Z,9.70
2018-01-11T15:22:12.822Z,9.70
2018-01-11T15:24:41.138Z,9.70
2018-01-11T15:27:10.225Z,9.60
2018-01-11T15:29:38.666Z,9.60
2018-01-11T15:32:06.990Z,9.60
2018-01-11T15:34:35.324Z,9.60
2018-01-11T15:37:03.641Z,9.60
2018-01-11T15:39:32.010Z,9.60
2018-01-11T15:42:00.326Z,9.60
2018-01-11T15:44:28.654Z,9.60
2018-01-11T15:46:56.986Z,9.60
2018-01-11T15:49:25.304Z,9.50
2018-01-11T15:51:53.623Z,9.50
2018-01-11T15:54:21.941Z,9.50
2018-01-11T15:56:51.018Z,9.50
2018-01-11T15:59:19.332Z,9.50
2018-01-11T16:01:47.752Z,9.50
2018-01-11T16:04:16.096Z,9.40
2018-01-11T16:06:45.255Z,9.30
2018-01-11T16:09:13.570Z,9.30
2018-01-11T16:11:42.669Z,9.20
2018-01-11T16:14:11.758Z,9.20
2018-01-11T16:16:40.151Z,9.20
2018-01-11T16:19:08.507Z,9.20
2018-01-11T16:21:36.952Z,9.10
2018-01-11T16:24:05.297Z,9.10
2018-01-11T16:26:33.610Z,9.10
2018-01-11T16:29:01.930Z,9.00
2018-01-11T16:31:30.264Z,9.10
2018-01-11T16:33:58.582Z,9.10
2018-01-11T16:36:26.928Z,9.10
2018-01-11T16:38:55.243Z,9.00
2018-01-11T16:41:23.576Z,9.00
2018-01-11T16:43:52.679Z,9.00
2018-01-11T16:46:22.512Z,8.90
2018-01-11T16:48:50.851Z,8.90
2018-01-11T16:51:19.185Z,9.00
2018-01-11T16:53:47.491Z,8.90
2018-01-11T16:56:15.800Z,8.80
2018-01-11T16:58:44.144Z,8.80
2018-01-11T17:01:12.445Z,8.80
2018-01-11T17:03:40.766Z,8.90
2018-01-11T17:06:09.880Z,8.90
2018-01-11T17:08:38.216Z,8.90
2018-01-11T17:11:06.650Z,8.90
2018-01-11T17:13:34.974Z,8.90
2018-01-11T17:16:03.306Z,8.90
2018-01-11T17:18:31.624Z,8.80
2018-01-11T17:20:59.938Z,8.80
2018-01-11T17:23:28.250Z,8.80
2018-01-11T17:25:57.335Z,8.80
2018-01-11T17:28:26.426Z,8.80
2018-01-11T17:30:54.754Z,8.80
2018-01-11T17:33:23.062Z,8.80
2018-01-11T17:35:51.397Z,8.80
2018-01-11T17:38:19.749Z,8.80
2018-01-11T17:40:48.093Z,8.80
2018-01-11T17:43:16.396Z,8.80
2018-01-11T17:45:44.709Z,8.70
2018-01-11T17:48:13.772Z,8.60
2018-01-11T17:50:42.141Z,8.60
2018-01-11T17:53:10.579Z,8.60
2018-01-11T17:55:39.713Z,8.50
2018-01-11T17:58:08.077Z,8.50
2018-01-11T18:00:36.385Z,8.50
2018-01-11T18:03:04.703Z,8.40
2018-01-11T18:05:33.035Z,8.40
2018-01-11T18:08:01.386Z,8.40
2018-01-11T18:10:30.525Z,8.50
2018-01-11T18:12:58.865Z,8.50
2018-01-11T18:15:27.966Z,8.60
2018-01-11T18:17:57.135Z,8.60
2018-01-11T18:20:25.482Z,8.60
2018-01-11T18:22:54.548Z,8.60
2018-01-11T18:25:22.869Z,8.60
2018-01-11T18:27:51.212Z,8.60
2018-01-11T18:30:20.294Z,8.60
2018-01-11T18:32:48.607Z,8.60
2018-01-11T18:35:16.942Z,8.50
2018-01-11T18:37:45.249Z,8.50
2018-01-11T18:40:13.562Z,8.50
2018-01-11T18:42:41.906Z,8.50
2018-01-11T18:45:11.005Z,8.50
2018-01-11T18:47:39.315Z,8.50
2018-01-11T18:50:08.399Z,8.50
2018-01-11T18:52:37.476Z,8.50
2018-01-11T18:55:05.780Z,8.40
2018-01-11T18:57:34.857Z,8.40
2018-01-11T19:00:03.192Z,8.40
2018-01-11T19:02:31.531Z,8.40
2018-01-11T19:04:59.857Z,8.40
2018-01-11T19:07:28.213Z,8.40
2018-01-11T19:09:57.325Z,8.40
2018-01-11T19:12:25.649Z,8.40
2018-01-11T19:14:53.965Z,8.40
2018-01-11T19:17:23.056Z,8.40
2018-01-11T19:19:51.493Z,8.30
2018-01-11T19:22:19.796Z,8.30
2018-01-11T19:24:48.110Z,8.40
2018-01-11T19:27:16.419Z,8.40
2018-01-11T19:29:44.752Z,8.40
2018-01-11T19:32:13.053Z,8.40
2018-01-11T19:34:41.384Z,8.40
2018-01-11T19:37:09.723Z,8.50
2018-01-11T19:39:38.055Z,8.40
2018-01-11T19:42:06.386Z,8.40
2018-01-11T19:44:34.699Z,8.40
2018-01-11T19:47:03.010Z,8.40
2018-01-11T19:49:31.312Z,8.40
2018-01-11T19:51:59.677Z,8.40
2018-01-11T19:54:28.813Z,8.40
2018-01-11T19:56:57.130Z,8.40
2018-01-11T19:59:25.455Z,8.50
2018-01-11T20:01:53.800Z,8.40
2018-01-11T20:04:22.144Z,8.40
2018-01-11T20:06:50.515Z,8.40
2018-01-11T20:09:18.917Z,8.40
2018-01-11T20:11:47.373Z,8.40
2018-01-11T20:14:15.687Z,8.40
2018-01-11T20:16:44.788Z,8.40
2018-01-11T20:19:13.877Z,8.40
2018-01-11T20:21:42.960Z,8.30
2018-01-11T20:24:11.264Z,8.30
2018-01-11T20:26:40.361Z,8.30
2018-01-11T20:29:09.430Z,8.30
2018-01-11T20:31:37.758Z,8.30
2018-01-11T20:34:06.861Z,8.20
2018-01-11T20:36:35.163Z,8.20
2018-01-11T20:39:03.629Z,8.20
2018-01-11T20:41:31.930Z,8.30
2018-01-11T20:44:00.241Z,8.30
2018-01-11T20:46:28.565Z,8.30
2018-01-11T20:48:57.631Z,8.30
2018-01-11T20:51:25.921Z,8.30
2018-01-11T20:53:54.244Z,8.30
2018-01-11T20:56:22.543Z,8.40
2018-01-11T20:58:50.845Z,8.40
2018-01-11T21:01:19.155Z,8.40
2018-01-11T21:03:48.219Z,8.40
2018-01-11T21:06:17.297Z,8.40
2018-01-11T21:08:45.618Z,8.40
2018-01-11T21:11:13.978Z,8.40
2018-01-11T21:13:42.299Z,8.40
2018-01-11T21:16:11.424Z,8.40
2018-01-11T21:18:39.711Z,8.40
2018-01-11T21:21:08.018Z,8.40
2018-01-11T21:23:36.334Z,8.40
2018-01-11T21:26:04.639Z,8.40
2018-01-11T21:28:33.732Z,8.40
2018-01-11T21:31:02.786Z,8.40
2018-01-11T21:33:31.084Z,8.40
2018-01-11T21:35:59.393Z,8.40
2018-01-11T21:38:28.469Z,8.40
2018-01-11T21:40:56.760Z,8.40
2018-01-11T21:43:25.073Z,8.50
2018-01-11T21:45:53.367Z,8.50
2018-01-11T21:48:21.693Z,8.50
2018-01-11T21:50:50.001Z,8.50
2018-01-11T21:53:19.079Z,8.50
2018-01-11T21:55:47.377Z,8.50
2018-01-11T21:58:16.429Z,8.50
2018-01-11T22:00:44.745Z,8.50
2018-01-11T22:03:13.057Z,8.50
2018-01-11T22:05:41.371Z,8.50
2018-01-11T22:08:09.677Z,8.50
2018-01-11T22:10:37.993Z,8.50
2018-01-11T22:13:07.045Z,8.40
2018-01-11T22:15:35.437Z,8.40
2018-01-11T22:18:03.737Z,8.40
2018-01-11T22:20:32.822Z,8.30
2018-01-11T22:23:01.257Z,8.30
2018-01-11T22:25:30.427Z,8.30
2018-01-11T22:27:58.753Z,8.30
2018-01-11T22:30:27.127Z,8.40
2018-01-11T22:32:55.437Z,8.40
2018-01-11T22:35:23.740Z,8.40
2018-01-11T22:37:52.056Z,8.40
2018-01-11T22:40:20.403Z,8.40
2018-01-11T22:42:49.474Z,8.50
2018-01-11T22:45:17.780Z,8.50
2018-01-11T22:47:46.116Z,8.50
2018-01-11T22:50:14.431Z,8.50
2018-01-11T22:52:42.742Z,8.50
2018-01-11T22:55:11.041Z,8.50
2018-01-11T22:57:39.398Z,8.50
2018-01-11T23:00:09.378Z,8.50
2018-01-11T23:02:37.671Z,8.50
2018-01-11T23:05:05.976Z,8.50
2018-01-11T23:07:35.059Z,8.40
2018-01-11T23:10:03.452Z,8.40
2018-01-11T23:12:32.533Z,8.30
2018-01-11T23:15:00.835Z,8.30
2018-01-11T23:17:29.136Z,8.30
2018-01-11T23:19:58.216Z,8.20
2018-01-11T23:22:26.532Z,8.20
2018-01-11T23:24:54.920Z,8.20
2018-01-11T23:27:23.247Z,8.10
2018-01-11T23:29:51.563Z,8.10
2018-01-11T23:32:19.909Z,8.10
2018-01-11T23:34:48.208Z,8.20
2018-01-11T23:37:17.188Z,8.20
2018-01-11T23:39:45.487Z,8.20
2018-01-11T23:42:13.798Z,8.30
2018-01-11T23:44:42.864Z,8.30
2018-01-11T23:47:11.942Z,8.40
2018-01-11T23:49:40.271Z,8.40
2018-01-11T23:52:09.376Z,8.30
2018-01-11T23:54:38.442Z,8.30
2018-01-11T23:57:08.252Z,8.30
2018-01-11T23:59:36.577Z,8.30
